NORTHEAST SUFFOLK  -  Special Weather Statement Special Weather Statement        NORTHERN NASSAU  -  Special Weather Statement Special Weather Statement        NORTHWEST SUFFOLK  -  Special Weather Statement Special Weather Statement        SOUTHEAST SUFFOLK  -  Special Weather Statement Special Weather Statement        SOUTHERN NASSAU  -  Special Weather Statement Special Weather Statement        SOUTHWEST SUFFOLK  -  Special Weather Statement Special Weather Statement      

Active alerts

Northern Nassau
  Details for Northern Nassau Special Weather Statement
Southern Nassau
  Details for Southern Nassau Special Weather Statement
Northwest Suffolk
  Details for Northwest Suffolk Special Weather Statement
Southwest Suffolk
  Details for Southwest Suffolk Special Weather Statement
Northeast Suffolk
  Details for Northeast Suffolk Special Weather Statement
Southeast Suffolk
  Details for Southeast Suffolk Special Weather Statement


WXM80 ListenWXM80 Stop

You find our weather info also at:

UK Metoffice

WeatherCloud

Weather Underground

Northeastern Weather Network

AWEKAS

Citizen Weather Observer Program (CWOP)

HAMweather, WeatherForYou, PWS Weather


Weather Underground History page Text

Daily Summary for January 4, 2017 Units:  Both    English   Metric
« Previous Day
Next Day »
Daily Weekly Monthly Yearly Custom
  High: Low: Average:
Temperature: 50.2 °F /  10.1 °C 35.5 °F /  1.9 °C 43.7 °F /  6.5 °C
Dew Point: 45.2 °F /  7.3 °C 17.3 °F /  -8.2 °C 36.4 °F /  2.4 °C
Humidity: 98 % 42 % 78 %
Wind Speed: 15.0 mph /  24.1 km/h - 5 mph /  8 km/h
Wind Gust: 29.0 mph /  46.7 km/h - -
Wind:- - WSW
Pressure: 29.68 in /  1005 hPa 29.40 in /  995.5 hPa -
Precipitation: 0.01 in /  0.25 mm    
Historical Graphs
 
 
Tabular Data for January 4, 2017
Time Temperature Dew Point Pressure Wind Wind Speed Wind Gust Humidity Rainfall Rate (Hourly)
00:03 42.0 °F /  5.6 °C 41.5 °F /  5.3 °C 29.43 in /  996.5 hPa WNW 3.6 mph /  5.8 km/h 29.0 mph /  46.7 km/h 98 % 0.01 in /  0.25 mm
00:08 42.0 °F /  5.6 °C 41.5 °F /  5.3 °C 29.42 in /  996.2 hPa WNW 3.1 mph /  5 km/h 29.0 mph /  46.7 km/h 98 % 0.01 in /  0.25 mm
00:13 41.9 °F /  5.5 °C 41.4 °F /  5.2 °C 29.43 in /  996.5 hPa WNW 2.5 mph /  4 km/h 29.0 mph /  46.7 km/h 98 % 0.01 in /  0.25 mm
00:18 41.9 °F /  5.5 °C 41.4 °F /  5.2 °C 29.43 in /  996.5 hPa WSW 0.8 mph /  1.3 km/h 29.0 mph /  46.7 km/h 98 % 0.01 in /  0.25 mm
00:24 41.9 °F /  5.5 °C 41.4 °F /  5.2 °C 29.42 in /  996.2 hPa WNW 1.6 mph /  2.6 km/h 29.0 mph /  46.7 km/h 98 % 0.01 in /  0.25 mm
00:29 41.9 °F /  5.5 °C 41.4 °F /  5.2 °C 29.42 in /  996.2 hPa WNW 2.9 mph /  4.7 km/h 29.0 mph /  46.7 km/h 98 % 0.01 in /  0.25 mm
00:34 41.8 °F /  5.4 °C 41.3 °F /  5.2 °C 29.43 in /  996.5 hPa West 1.3 mph /  2.1 km/h 29.0 mph /  46.7 km/h 98 % 0.01 in /  0.25 mm
00:39 41.9 °F /  5.5 °C 41.4 °F /  5.2 °C 29.42 in /  996.2 hPa WNW 1.2 mph /  1.9 km/h 29.0 mph /  46.7 km/h 98 % 0.01 in /  0.25 mm
00:44 41.8 °F /  5.4 °C 41.3 °F /  5.2 °C 29.42 in /  996.2 hPa West 4.0 mph /  6.4 km/h 29.0 mph /  46.7 km/h 98 % 0.01 in /  0.25 mm
00:49 41.8 °F /  5.4 °C 41.3 °F /  5.2 °C 29.42 in /  996.2 hPa West 1.0 mph /  1.6 km/h 29.0 mph /  46.7 km/h 98 % 0.01 in /  0.25 mm
00:54 41.8 °F /  5.4 °C 41.3 °F /  5.2 °C 29.41 in /  995.8 hPa Calm   5.0 mph /  8 km/h 98 % 0.00 in /  0 mm
00:59 41.8 °F /  5.4 °C 41.3 °F /  5.2 °C 29.41 in /  995.8 hPa WNW 2.2 mph /  3.5 km/h 29.0 mph /  46.7 km/h 98 % 0.01 in /  0.25 mm
01:04 41.7 °F /  5.4 °C 41.2 °F /  5.1 °C 29.41 in /  995.8 hPa WNW 1.0 mph /  1.6 km/h 3.0 mph /  4.8 km/h 98 % 0.00 in /  0 mm
01:09 41.7 °F /  5.4 °C 41.2 °F /  5.1 °C 29.41 in /  995.8 hPa WNW 2.2 mph /  3.5 km/h 29.0 mph /  46.7 km/h 98 % 0.00 in /  0 mm
01:14 41.7 °F /  5.4 °C 41.2 °F /  5.1 °C 29.41 in /  995.8 hPa Calm   3.0 mph /  4.8 km/h 98 % 0.00 in /  0 mm
01:19 41.7 °F /  5.4 °C 41.2 °F /  5.1 °C 29.42 in /  996.2 hPa WNW 1.0 mph /  1.6 km/h 2.0 mph /  3.2 km/h 98 % 0.00 in /  0 mm
01:24 41.7 °F /  5.4 °C 41.2 °F /  5.1 °C 29.41 in /  995.8 hPa WNW 1.0 mph /  1.6 km/h 3.0 mph /  4.8 km/h 98 % 0.00 in /  0 mm
01:29 41.7 °F /  5.4 °C 41.1 °F /  5.1 °C 29.42 in /  996.2 hPa WSW 7.0 mph /  11.3 km/h 12.0 mph /  19.3 km/h 98 % 0.00 in /  0 mm
01:34 41.5 °F /  5.3 °C 41.0 °F /  5 °C 29.42 in /  996.2 hPa WSW 3.0 mph /  4.8 km/h 12.0 mph /  19.3 km/h 98 % 0.00 in /  0 mm
01:39 41.4 °F /  5.2 °C 40.9 °F /  4.9 °C 29.42 in /  996.2 hPa WSW 3.0 mph /  4.8 km/h 8.0 mph /  12.9 km/h 98 % 0.00 in /  0 mm
01:44 41.3 °F /  5.2 °C 40.8 °F /  4.9 °C 29.42 in /  996.2 hPa WSW 5.0 mph /  8 km/h 7.0 mph /  11.3 km/h 98 % 0.00 in /  0 mm
01:49 41.3 °F /  5.2 °C 40.8 °F /  4.9 °C 29.42 in /  996.2 hPa West 1.0 mph /  1.6 km/h 8.0 mph /  12.9 km/h 98 % 0.00 in /  0 mm
01:54 41.2 °F /  5.1 °C 40.7 °F /  4.8 °C 29.42 in /  996.2 hPa WSW 3.8 mph /  6.1 km/h 29.0 mph /  46.7 km/h 98 % 0.00 in /  0 mm
01:59 41.2 °F /  5.1 °C 40.7 °F /  4.8 °C 29.42 in /  996.2 hPa WSW 2.7 mph /  4.3 km/h 29.0 mph /  46.7 km/h 98 % 0.00 in /  0 mm
02:04 41.1 °F /  5.1 °C 40.6 °F /  4.8 °C 29.42 in /  996.2 hPa West 1.2 mph /  1.9 km/h 29.0 mph /  46.7 km/h 98 % 0.00 in /  0 mm
02:09 41.1 °F /  5.1 °C 40.6 °F /  4.8 °C 29.42 in /  996.2 hPa West 4.1 mph /  6.6 km/h 29.0 mph /  46.7 km/h 98 % 0.00 in /  0 mm
02:14 41.1 °F /  5.1 °C 40.6 °F /  4.8 °C 29.42 in /  996.2 hPa WSW 3.2 mph /  5.1 km/h 29.0 mph /  46.7 km/h 98 % 0.00 in /  0 mm
02:19 41.0 °F /  5 °C 40.5 °F /  4.7 °C 29.42 in /  996.2 hPa WNW 2.2 mph /  3.5 km/h 29.0 mph /  46.7 km/h 98 % 0.00 in /  0 mm
02:24 41.0 °F /  5 °C 40.5 °F /  4.7 °C 29.42 in /  996.2 hPa West 2.8 mph /  4.5 km/h 29.0 mph /  46.7 km/h 98 % 0.00 in /  0 mm
02:30 40.9 °F /  4.9 °C 40.4 °F /  4.7 °C 29.43 in /  996.5 hPa SW 3.9 mph /  6.3 km/h 29.0 mph /  46.7 km/h 98 % 0.00 in /  0 mm
02:35 40.9 °F /  4.9 °C 40.4 °F /  4.7 °C 29.42 in /  996.2 hPa SW 1.1 mph /  1.8 km/h 29.0 mph /  46.7 km/h 98 % 0.00 in /  0 mm
02:40 40.9 °F /  4.9 °C 40.4 °F /  4.7 °C 29.42 in /  996.2 hPa SW 1.3 mph /  2.1 km/h 29.0 mph /  46.7 km/h 98 % 0.00 in /  0 mm
02:45 40.8 °F /  4.9 °C 40.3 °F /  4.6 °C 29.42 in /  996.2 hPa WNW 0.6 mph /  1 km/h 29.0 mph /  46.7 km/h 98 % 0.00 in /  0 mm
02:50 40.8 °F /  4.9 °C 40.3 °F /  4.6 °C 29.42 in /  996.2 hPa WNW 2.8 mph /  4.5 km/h 29.0 mph /  46.7 km/h 98 % 0.00 in /  0 mm
02:55 40.8 °F /  4.9 °C 40.3 °F /  4.6 °C 29.41 in /  995.8 hPa West 1.3 mph /  2.1 km/h 29.0 mph /  46.7 km/h 98 % 0.00 in /  0 mm
03:00 40.7 °F /  4.8 °C 40.2 °F /  4.6 °C 29.40 in /  995.5 hPa Calm   29.0 mph /  46.7 km/h 98 % 0.00 in /  0 mm
03:05 40.7 °F /  4.8 °C 40.2 °F /  4.6 °C 29.41 in /  995.8 hPa WSW 3.1 mph /  5 km/h 29.0 mph /  46.7 km/h 98 % 0.00 in /  0 mm
03:10 40.7 °F /  4.8 °C 40.2 °F /  4.6 °C 29.42 in /  996.2 hPa WSW 2.7 mph /  4.3 km/h 29.0 mph /  46.7 km/h 98 % 0.00 in /  0 mm
03:15 40.7 °F /  4.8 °C 40.2 °F /  4.6 °C 29.42 in /  996.2 hPa SW 2.7 mph /  4.3 km/h 29.0 mph /  46.7 km/h 98 % 0.00 in /  0 mm
03:20 40.7 °F /  4.8 °C 40.2 °F /  4.6 °C 29.42 in /  996.2 hPa SW 2.3 mph /  3.7 km/h 29.0 mph /  46.7 km/h 98 % 0.00 in /  0 mm
03:25 40.7 °F /  4.8 °C 40.2 °F /  4.6 °C 29.41 in /  995.8 hPa Calm   29.0 mph /  46.7 km/h 98 % 0.00 in /  0 mm
03:30 40.6 °F /  4.8 °C 40.1 °F /  4.5 °C 29.42 in /  996.2 hPa SW 0.6 mph /  1 km/h 29.0 mph /  46.7 km/h 98 % 0.00 in /  0 mm
03:35 40.7 °F /  4.8 °C 40.2 °F /  4.6 °C 29.41 in /  995.8 hPa SW 3.6 mph /  5.8 km/h 29.0 mph /  46.7 km/h 98 % 0.00 in /  0 mm
03:40 40.7 °F /  4.8 °C 40.2 °F /  4.6 °C 29.41 in /  995.8 hPa SW 0.5 mph /  0.8 km/h 29.0 mph /  46.7 km/h 98 % 0.00 in /  0 mm
03:45 40.6 °F /  4.8 °C 40.1 °F /  4.5 °C 29.41 in /  995.8 hPa SW 2.2 mph /  3.5 km/h 29.0 mph /  46.7 km/h 98 % 0.00 in /  0 mm
03:50 40.6 °F /  4.8 °C 40.1 °F /  4.5 °C 29.41 in /  995.8 hPa SW 0.4 mph /  0.6 km/h 29.0 mph /  46.7 km/h 98 % 0.00 in /  0 mm
03:56 40.6 °F /  4.8 °C 40.1 °F /  4.5 °C 29.41 in /  995.8 hPa SW 0.6 mph /  1 km/h 29.0 mph /  46.7 km/h 98 % 0.00 in /  0 mm
04:01 40.6 °F /  4.8 °C 40.1 °F /  4.5 °C 29.41 in /  995.8 hPa SW 1.3 mph /  2.1 km/h 29.0 mph /  46.7 km/h 98 % 0.00 in /  0 mm
04:06 40.7 °F /  4.8 °C 40.2 °F /  4.6 °C 29.41 in /  995.8 hPa SW 1.7 mph /  2.7 km/h 29.0 mph /  46.7 km/h 98 % 0.00 in /  0 mm
04:11 40.7 °F /  4.8 °C 40.2 °F /  4.6 °C 29.42 in /  996.2 hPa SW 1.2 mph /  1.9 km/h 29.0 mph /  46.7 km/h 98 % 0.00 in /  0 mm
04:16 40.7 °F /  4.8 °C 40.2 °F /  4.6 °C 29.41 in /  995.8 hPa SW 1.7 mph /  2.7 km/h 29.0 mph /  46.7 km/h 98 % 0.00 in /  0 mm
04:21 40.7 °F /  4.8 °C 40.2 °F /  4.6 °C 29.42 in /  996.2 hPa SW 1.1 mph /  1.8 km/h 29.0 mph /  46.7 km/h 98 % 0.00 in /  0 mm
04:26 40.7 °F /  4.8 °C 40.2 °F /  4.6 °C 29.41 in /  995.8 hPa SW 1.6 mph /  2.6 km/h 29.0 mph /  46.7 km/h 98 % 0.00 in /  0 mm
04:31 40.8 °F /  4.9 °C 40.3 °F /  4.6 °C 29.42 in /  996.2 hPa SW 1.3 mph /  2.1 km/h 29.0 mph /  46.7 km/h 98 % 0.00 in /  0 mm
04:36 40.8 °F /  4.9 °C 40.3 °F /  4.6 °C 29.43 in /  996.5 hPa SW 1.7 mph /  2.7 km/h 29.0 mph /  46.7 km/h 98 % 0.00 in /  0 mm
04:41 40.9 °F /  4.9 °C 40.4 °F /  4.7 °C 29.42 in /  996.2 hPa Calm   29.0 mph /  46.7 km/h 98 % 0.00 in /  0 mm
04:46 40.9 °F /  4.9 °C 40.4 °F /  4.7 °C 29.42 in /  996.2 hPa WSW 1.8 mph /  2.9 km/h 29.0 mph /  46.7 km/h 98 % 0.00 in /  0 mm
04:51 40.9 °F /  4.9 °C 40.4 °F /  4.7 °C 29.41 in /  995.8 hPa Calm   29.0 mph /  46.7 km/h 98 % 0.00 in /  0 mm
04:56 41.0 °F /  5 °C 40.5 °F /  4.7 °C 29.41 in /  995.8 hPa WSW 0.9 mph /  1.4 km/h 29.0 mph /  46.7 km/h 98 % 0.00 in /  0 mm
05:02 41.0 °F /  5 °C 40.5 °F /  4.7 °C 29.41 in /  995.8 hPa WSW 1.3 mph /  2.1 km/h 29.0 mph /  46.7 km/h 98 % 0.00 in /  0 mm
05:07 41.0 °F /  5 °C 40.5 °F /  4.7 °C 29.41 in /  995.8 hPa SSW 1.3 mph /  2.1 km/h 29.0 mph /  46.7 km/h 98 % 0.00 in /  0 mm
05:12 41.1 °F /  5.1 °C 40.6 °F /  4.8 °C 29.41 in /  995.8 hPa SSW 2.6 mph /  4.2 km/h 29.0 mph /  46.7 km/h 98 % 0.00 in /  0 mm
05:17 41.1 °F /  5.1 °C 40.6 °F /  4.8 °C 29.41 in /  995.8 hPa SSW 0.2 mph /  0.3 km/h 29.0 mph /  46.7 km/h 98 % 0.00 in /  0 mm
05:22 41.1 °F /  5.1 °C 40.6 °F /  4.8 °C 29.41 in /  995.8 hPa SW 2.2 mph /  3.5 km/h 29.0 mph /  46.7 km/h 98 % 0.00 in /  0 mm
05:27 41.2 °F /  5.1 °C 40.7 °F /  4.8 °C 29.41 in /  995.8 hPa SW 3.0 mph /  4.8 km/h 29.0 mph /  46.7 km/h 98 % 0.00 in /  0 mm
05:32 41.2 °F /  5.1 °C 40.7 °F /  4.8 °C 29.42 in /  996.2 hPa SW 2.4 mph /  3.9 km/h 29.0 mph /  46.7 km/h 98 % 0.00 in /  0 mm
05:37 41.3 °F /  5.2 °C 40.8 °F /  4.9 °C 29.42 in /  996.2 hPa SW 1.9 mph /  3.1 km/h 29.0 mph /  46.7 km/h 98 % 0.00 in /  0 mm
05:42 41.3 °F /  5.2 °C 40.8 °F /  4.9 °C 29.42 in /  996.2 hPa SW 1.0 mph /  1.6 km/h 29.0 mph /  46.7 km/h 98 % 0.00 in /  0 mm
05:47 41.4 °F /  5.2 °C 40.9 °F /  4.9 °C 29.42 in /  996.2 hPa WSW 3.4 mph /  5.5 km/h 29.0 mph /  46.7 km/h 98 % 0.00 in /  0 mm
05:52 41.4 °F /  5.2 °C 40.9 °F /  4.9 °C 29.43 in /  996.5 hPa WSW 3.6 mph /  5.8 km/h 29.0 mph /  46.7 km/h 98 % 0.00 in /  0 mm
05:57 41.5 °F /  5.3 °C 41.0 °F /  5 °C 29.43 in /  996.5 hPa WSW 0.7 mph /  1.1 km/h 29.0 mph /  46.7 km/h 98 % 0.00 in /  0 mm
06:02 41.5 °F /  5.3 °C 41.0 °F /  5 °C 29.43 in /  996.5 hPa SW 2.2 mph /  3.5 km/h 29.0 mph /  46.7 km/h 98 % 0.00 in /  0 mm
06:07 41.5 °F /  5.3 °C 41.0 °F /  5 °C 29.42 in /  996.2 hPa SW 3.0 mph /  4.8 km/h 29.0 mph /  46.7 km/h 98 % 0.00 in /  0 mm
06:12 41.5 °F /  5.3 °C 41.0 °F /  5 °C 29.42 in /  996.2 hPa WSW 2.9 mph /  4.7 km/h 29.0 mph /  46.7 km/h 98 % 0.00 in /  0 mm
06:18 41.5 °F /  5.3 °C 41.0 °F /  5 °C 29.42 in /  996.2 hPa WSW 1.4 mph /  2.3 km/h 29.0 mph /  46.7 km/h 98 % 0.00 in /  0 mm
06:23 41.5 °F /  5.3 °C 41.0 °F /  5 °C 29.43 in /  996.5 hPa Calm   29.0 mph /  46.7 km/h 98 % 0.00 in /  0 mm
06:28 41.6 °F /  5.3 °C 41.1 °F /  5.1 °C 29.43 in /  996.5 hPa WSW 0.8 mph /  1.3 km/h 29.0 mph /  46.7 km/h 98 % 0.00 in /  0 mm
06:33 41.6 °F /  5.3 °C 41.1 °F /  5.1 °C 29.42 in /  996.2 hPa WSW 0.3 mph /  0.5 km/h 29.0 mph /  46.7 km/h 98 % 0.00 in /  0 mm
06:38 41.6 °F /  5.3 °C 41.1 °F /  5.1 °C 29.42 in /  996.2 hPa West 0.5 mph /  0.8 km/h 29.0 mph /  46.7 km/h 98 % 0.00 in /  0 mm
06:43 41.6 °F /  5.3 °C 41.1 °F /  5.1 °C 29.43 in /  996.5 hPa West 0.1 mph /  0.2 km/h 29.0 mph /  46.7 km/h 98 % 0.00 in /  0 mm
06:48 41.6 °F /  5.3 °C 41.1 °F /  5.1 °C 29.43 in /  996.5 hPa West 0.2 mph /  0.3 km/h 29.0 mph /  46.7 km/h 98 % 0.00 in /  0 mm
06:53 41.6 °F /  5.3 °C 41.1 °F /  5.1 °C 29.43 in /  996.5 hPa SW 1.4 mph /  2.3 km/h 29.0 mph /  46.7 km/h 98 % 0.00 in /  0 mm
06:58 41.6 °F /  5.3 °C 41.1 °F /  5.1 °C 29.43 in /  996.5 hPa West 1.8 mph /  2.9 km/h 29.0 mph /  46.7 km/h 98 % 0.00 in /  0 mm
07:03 41.6 °F /  5.3 °C 41.1 °F /  5.1 °C 29.43 in /  996.5 hPa Calm   29.0 mph /  46.7 km/h 98 % 0.00 in /  0 mm
07:08 41.6 °F /  5.3 °C 41.1 °F /  5.1 °C 29.43 in /  996.5 hPa SW 0.6 mph /  1 km/h 29.0 mph /  46.7 km/h 98 % 0.00 in /  0 mm
07:13 41.6 °F /  5.3 °C 41.1 °F /  5.1 °C 29.43 in /  996.5 hPa SW 2.9 mph /  4.7 km/h 29.0 mph /  46.7 km/h 98 % 0.00 in /  0 mm
07:19 41.7 °F /  5.4 °C 41.2 °F /  5.1 °C 29.43 in /  996.5 hPa SW 1.1 mph /  1.8 km/h 29.0 mph /  46.7 km/h 98 % 0.00 in /  0 mm
07:24 41.7 °F /  5.4 °C 41.2 °F /  5.1 °C 29.43 in /  996.5 hPa Calm   29.0 mph /  46.7 km/h 98 % 0.00 in /  0 mm
07:29 41.8 °F /  5.4 °C 41.3 °F /  5.2 °C 29.44 in /  996.8 hPa SW 2.1 mph /  3.4 km/h 29.0 mph /  46.7 km/h 98 % 0.00 in /  0 mm
07:34 41.9 °F /  5.5 °C 41.4 °F /  5.2 °C 29.44 in /  996.8 hPa SW 1.5 mph /  2.4 km/h 29.0 mph /  46.7 km/h 98 % 0.00 in /  0 mm
07:39 41.9 °F /  5.5 °C 41.4 °F /  5.2 °C 29.45 in /  997.2 hPa WSW 4.2 mph /  6.8 km/h 29.0 mph /  46.7 km/h 98 % 0.00 in /  0 mm
07:44 42.0 °F /  5.6 °C 41.5 °F /  5.3 °C 29.45 in /  997.2 hPa SSW 1.8 mph /  2.9 km/h 29.0 mph /  46.7 km/h 98 % 0.00 in /  0 mm
07:49 42.1 °F /  5.6 °C 41.6 °F /  5.3 °C 29.44 in /  996.8 hPa WSW 3.0 mph /  4.8 km/h 29.0 mph /  46.7 km/h 98 % 0.00 in /  0 mm
07:54 42.1 °F /  5.6 °C 41.6 °F /  5.3 °C 29.44 in /  996.8 hPa SW 3.3 mph /  5.3 km/h 29.0 mph /  46.7 km/h 98 % 0.00 in /  0 mm
07:59 42.2 °F /  5.7 °C 41.7 °F /  5.4 °C 29.43 in /  996.5 hPa WSW 2.5 mph /  4 km/h 29.0 mph /  46.7 km/h 98 % 0.00 in /  0 mm
08:04 42.3 °F /  5.7 °C 41.8 °F /  5.4 °C 29.44 in /  996.8 hPa Calm   29.0 mph /  46.7 km/h 98 % 0.00 in /  0 mm
08:09 42.4 °F /  5.8 °C 41.9 °F /  5.5 °C 29.44 in /  996.8 hPa SW 0.3 mph /  0.5 km/h 29.0 mph /  46.7 km/h 98 % 0.00 in /  0 mm
08:14 42.5 °F /  5.8 °C 42.0 °F /  5.6 °C 29.44 in /  996.8 hPa WSW 3.7 mph /  6 km/h 29.0 mph /  46.7 km/h 98 % 0.00 in /  0 mm
08:19 42.6 °F /  5.9 °C 42.1 °F /  5.6 °C 29.45 in /  997.2 hPa SSW 3.2 mph /  5.1 km/h 29.0 mph /  46.7 km/h 98 % 0.00 in /  0 mm
08:24 42.7 °F /  5.9 °C 42.2 °F /  5.7 °C 29.45 in /  997.2 hPa SSW 3.9 mph /  6.3 km/h 29.0 mph /  46.7 km/h 98 % 0.00 in /  0 mm
08:30 42.8 °F /  6 °C 42.3 °F /  5.7 °C 29.45 in /  997.2 hPa SW 4.2 mph /  6.8 km/h 29.0 mph /  46.7 km/h 98 % 0.00 in /  0 mm
08:35 42.9 °F /  6.1 °C 42.4 °F /  5.8 °C 29.45 in /  997.2 hPa SSW 3.8 mph /  6.1 km/h 29.0 mph /  46.7 km/h 98 % 0.00 in /  0 mm
08:40 43.0 °F /  6.1 °C 42.5 °F /  5.8 °C 29.44 in /  996.8 hPa WSW 2.4 mph /  3.9 km/h 29.0 mph /  46.7 km/h 98 % 0.00 in /  0 mm
08:45 43.1 °F /  6.2 °C 42.6 °F /  5.9 °C 29.44 in /  996.8 hPa WSW 4.5 mph /  7.2 km/h 29.0 mph /  46.7 km/h 98 % 0.00 in /  0 mm
08:50 43.2 °F /  6.2 °C 42.7 °F /  5.9 °C 29.45 in /  997.2 hPa West 4.0 mph /  6.4 km/h 29.0 mph /  46.7 km/h 98 % 0.00 in /  0 mm
08:55 43.3 °F /  6.3 °C 42.8 °F /  6 °C 29.45 in /  997.2 hPa WSW 5.4 mph /  8.7 km/h 29.0 mph /  46.7 km/h 98 % 0.00 in /  0 mm
09:00 43.4 °F /  6.3 °C 42.9 °F /  6.1 °C 29.45 in /  997.2 hPa SW 4.8 mph /  7.7 km/h 29.0 mph /  46.7 km/h 98 % 0.00 in /  0 mm
09:05 43.5 °F /  6.4 °C 43.0 °F /  6.1 °C 29.45 in /  997.2 hPa WSW 6.8 mph /  10.9 km/h 29.0 mph /  46.7 km/h 98 % 0.00 in /  0 mm
09:10 43.7 °F /  6.5 °C 43.2 °F /  6.2 °C 29.45 in /  997.2 hPa WSW 1.0 mph /  1.6 km/h 29.0 mph /  46.7 km/h 98 % 0.00 in /  0 mm
09:15 43.8 °F /  6.6 °C 43.3 °F /  6.3 °C 29.45 in /  997.2 hPa SSW 2.1 mph /  3.4 km/h 29.0 mph /  46.7 km/h 98 % 0.00 in /  0 mm
09:20 44.0 °F /  6.7 °C 43.5 °F /  6.4 °C 29.45 in /  997.2 hPa WSW 4.6 mph /  7.4 km/h 29.0 mph /  46.7 km/h 98 % 0.00 in /  0 mm
09:25 44.2 °F /  6.8 °C 43.7 °F /  6.5 °C 29.45 in /  997.2 hPa SW 3.5 mph /  5.6 km/h 29.0 mph /  46.7 km/h 98 % 0.00 in /  0 mm
09:31 44.4 °F /  6.9 °C 43.9 °F /  6.6 °C 29.45 in /  997.2 hPa SW 4.6 mph /  7.4 km/h 29.0 mph /  46.7 km/h 98 % 0.00 in /  0 mm
09:36 44.7 °F /  7.1 °C 44.2 °F /  6.8 °C 29.45 in /  997.2 hPa WSW 3.3 mph /  5.3 km/h 29.0 mph /  46.7 km/h 98 % 0.00 in /  0 mm
09:41 45.0 °F /  7.2 °C 44.5 °F /  6.9 °C 29.46 in /  997.5 hPa SSW 7.2 mph /  11.6 km/h 29.0 mph /  46.7 km/h 98 % 0.00 in /  0 mm
09:46 45.1 °F /  7.3 °C 44.6 °F /  7 °C 29.46 in /  997.5 hPa SW 4.4 mph /  7.1 km/h 29.0 mph /  46.7 km/h 98 % 0.00 in /  0 mm
09:51 45.2 °F /  7.3 °C 44.7 °F /  7.1 °C 29.46 in /  997.5 hPa South 3.3 mph /  5.3 km/h 29.0 mph /  46.7 km/h 98 % 0.00 in /  0 mm
09:56 45.3 °F /  7.4 °C 44.5 °F /  6.9 °C 29.46 in /  997.5 hPa WSW 5.0 mph /  8 km/h 29.0 mph /  46.7 km/h 97 % 0.00 in /  0 mm
10:01 45.5 °F /  7.5 °C 44.7 °F /  7.1 °C 29.47 in /  997.9 hPa West 6.7 mph /  10.8 km/h 29.0 mph /  46.7 km/h 97 % 0.00 in /  0 mm
10:06 45.8 °F /  7.7 °C 44.7 °F /  7.1 °C 29.47 in /  997.9 hPa SW 9.6 mph /  15.4 km/h 29.0 mph /  46.7 km/h 96 % 0.00 in /  0 mm
10:11 46.0 °F /  7.8 °C 44.6 °F /  7 °C 29.46 in /  997.5 hPa SW 4.8 mph /  7.7 km/h 29.0 mph /  46.7 km/h 95 % 0.00 in /  0 mm
10:16 46.3 °F /  7.9 °C 44.7 °F /  7.1 °C 29.46 in /  997.5 hPa SW 3.3 mph /  5.3 km/h 29.0 mph /  46.7 km/h 94 % 0.00 in /  0 mm
10:21 46.4 °F /  8 °C 44.8 °F /  7.1 °C 29.46 in /  997.5 hPa WSW 5.0 mph /  8 km/h 29.0 mph /  46.7 km/h 94 % 0.00 in /  0 mm
10:26 46.5 °F /  8.1 °C 44.9 °F /  7.2 °C 29.46 in /  997.5 hPa SW 3.9 mph /  6.3 km/h 29.0 mph /  46.7 km/h 94 % 0.00 in /  0 mm
10:31 46.5 °F /  8.1 °C 44.3 °F /  6.8 °C 29.46 in /  997.5 hPa West 7.8 mph /  12.6 km/h 29.0 mph /  46.7 km/h 92 % 0.00 in /  0 mm
10:36 46.5 °F /  8.1 °C 44.3 °F /  6.8 °C 29.46 in /  997.5 hPa SW 4.1 mph /  6.6 km/h 29.0 mph /  46.7 km/h 92 % 0.00 in /  0 mm
10:42 46.6 °F /  8.1 °C 44.1 °F /  6.7 °C 29.46 in /  997.5 hPa WSW 3.4 mph /  5.5 km/h 29.0 mph /  46.7 km/h 91 % 0.00 in /  0 mm
10:47 46.8 °F /  8.2 °C 44.3 °F /  6.8 °C 29.45 in /  997.2 hPa SW 4.1 mph /  6.6 km/h 29.0 mph /  46.7 km/h 91 % 0.00 in /  0 mm
10:52 46.9 °F /  8.3 °C 44.4 °F /  6.9 °C 29.45 in /  997.2 hPa West 4.6 mph /  7.4 km/h 29.0 mph /  46.7 km/h 91 % 0.00 in /  0 mm
10:57 47.0 °F /  8.3 °C 44.5 °F /  6.9 °C 29.46 in /  997.5 hPa West 4.8 mph /  7.7 km/h 29.0 mph /  46.7 km/h 91 % 0.00 in /  0 mm
11:02 47.3 °F /  8.5 °C 44.8 °F /  7.1 °C 29.45 in /  997.2 hPa SW 4.3 mph /  6.9 km/h 29.0 mph /  46.7 km/h 91 % 0.00 in /  0 mm
11:07 47.6 °F /  8.7 °C 44.8 °F /  7.1 °C 29.45 in /  997.2 hPa WSW 4.5 mph /  7.2 km/h 29.0 mph /  46.7 km/h 90 % 0.00 in /  0 mm
11:12 47.8 °F /  8.8 °C 44.7 °F /  7.1 °C 29.45 in /  997.2 hPa WNW 4.7 mph /  7.6 km/h 29.0 mph /  46.7 km/h 89 % 0.00 in /  0 mm
11:17 48.0 °F /  8.9 °C 44.6 °F /  7 °C 29.45 in /  997.2 hPa SW 5.0 mph /  8 km/h 29.0 mph /  46.7 km/h 88 % 0.00 in /  0 mm
11:22 48.3 °F /  9.1 °C 45.2 °F /  7.3 °C 29.46 in /  997.5 hPa SW 7.9 mph /  12.7 km/h 29.0 mph /  46.7 km/h 89 % 0.00 in /  0 mm
11:27 48.5 °F /  9.2 °C 44.8 °F /  7.1 °C 29.46 in /  997.5 hPa WSW 5.2 mph /  8.4 km/h 29.0 mph /  46.7 km/h 87 % 0.00 in /  0 mm
11:32 48.6 °F /  9.2 °C 44.6 °F /  7 °C 29.46 in /  997.5 hPa WSW 8.4 mph /  13.5 km/h 29.0 mph /  46.7 km/h 86 % 0.00 in /  0 mm
11:37 48.6 °F /  9.2 °C 44.6 °F /  7 °C 29.46 in /  997.5 hPa SW 6.4 mph /  10.3 km/h 29.0 mph /  46.7 km/h 86 % 0.00 in /  0 mm
11:42 48.7 °F /  9.3 °C 44.7 °F /  7.1 °C 29.46 in /  997.5 hPa SW 4.9 mph /  7.9 km/h 29.0 mph /  46.7 km/h 86 % 0.00 in /  0 mm
11:47 48.8 °F /  9.3 °C 44.8 °F /  7.1 °C 29.45 in /  997.2 hPa SW 8.0 mph /  12.9 km/h 29.0 mph /  46.7 km/h 86 % 0.00 in /  0 mm
11:53 48.8 °F /  9.3 °C 44.5 °F /  6.9 °C 29.45 in /  997.2 hPa West 6.5 mph /  10.5 km/h 29.0 mph /  46.7 km/h 85 % 0.00 in /  0 mm
11:58 48.8 °F /  9.3 °C 44.5 °F /  6.9 °C 29.46 in /  997.5 hPa West 7.5 mph /  12.1 km/h 29.0 mph /  46.7 km/h 85 % 0.00 in /  0 mm
12:03 48.9 °F /  9.4 °C 44.6 °F /  7 °C 29.46 in /  997.5 hPa West 4.6 mph /  7.4 km/h 29.0 mph /  46.7 km/h 85 % 0.00 in /  0 mm
12:08 49.0 °F /  9.4 °C 44.4 °F /  6.9 °C 29.46 in /  997.5 hPa WSW 8.1 mph /  13 km/h 29.0 mph /  46.7 km/h 84 % 0.00 in /  0 mm
12:13 49.0 °F /  9.4 °C 44.4 °F /  6.9 °C 29.45 in /  997.2 hPa West 8.1 mph /  13 km/h 29.0 mph /  46.7 km/h 84 % 0.00 in /  0 mm
12:18 49.1 °F /  9.5 °C 44.5 °F /  6.9 °C 29.45 in /  997.2 hPa WSW 6.2 mph /  10 km/h 29.0 mph /  46.7 km/h 84 % 0.00 in /  0 mm
12:23 49.2 °F /  9.6 °C 44.3 °F /  6.8 °C 29.45 in /  997.2 hPa WSW 3.1 mph /  5 km/h 29.0 mph /  46.7 km/h 83 % 0.00 in /  0 mm
12:28 49.3 °F /  9.6 °C 44.7 °F /  7.1 °C 29.45 in /  997.2 hPa WSW 6.9 mph /  11.1 km/h 29.0 mph /  46.7 km/h 84 % 0.00 in /  0 mm
12:33 49.4 °F /  9.7 °C 44.5 °F /  6.9 °C 29.45 in /  997.2 hPa WSW 7.2 mph /  11.6 km/h 29.0 mph /  46.7 km/h 83 % 0.00 in /  0 mm
12:38 49.4 °F /  9.7 °C 44.1 °F /  6.7 °C 29.45 in /  997.2 hPa WSW 7.2 mph /  11.6 km/h 29.0 mph /  46.7 km/h 82 % 0.00 in /  0 mm
12:43 49.3 °F /  9.6 °C 44.0 °F /  6.7 °C 29.45 in /  997.2 hPa SW 5.9 mph /  9.5 km/h 29.0 mph /  46.7 km/h 82 % 0.00 in /  0 mm
12:48 49.2 °F /  9.6 °C 43.9 °F /  6.6 °C 29.45 in /  997.2 hPa SW 6.2 mph /  10 km/h 29.0 mph /  46.7 km/h 82 % 0.00 in /  0 mm
12:50 49.2 °F /  9.6 °C 43.9 °F /  6.6 °C 29.45 in /  997.2 hPa West 3.5 mph /  5.6 km/h 29.0 mph /  46.7 km/h 82 % 0.00 in /  0 mm
12:55 49.1 °F /  9.5 °C 43.8 °F /  6.6 °C 29.45 in /  997.2 hPa West 8.7 mph /  14 km/h 29.0 mph /  46.7 km/h 82 % 0.00 in /  0 mm
13:00 49.1 °F /  9.5 °C 44.2 °F /  6.8 °C 29.44 in /  996.8 hPa SW 7.5 mph /  12.1 km/h 29.0 mph /  46.7 km/h 83 % 0.00 in /  0 mm
13:05 49.0 °F /  9.4 °C 44.1 °F /  6.7 °C 29.44 in /  996.8 hPa SSW 4.3 mph /  6.9 km/h 29.0 mph /  46.7 km/h 83 % 0.00 in /  0 mm
13:10 49.0 °F /  9.4 °C 44.1 °F /  6.7 °C 29.44 in /  996.8 hPa SW 3.0 mph /  4.8 km/h 29.0 mph /  46.7 km/h 83 % 0.00 in /  0 mm
13:15 48.9 °F /  9.4 °C 44.0 °F /  6.7 °C 29.44 in /  996.8 hPa SW 8.6 mph /  13.8 km/h 29.0 mph /  46.7 km/h 83 % 0.00 in /  0 mm
13:20 48.8 °F /  9.3 °C 43.9 °F /  6.6 °C 29.44 in /  996.8 hPa WSW 7.4 mph /  11.9 km/h 29.0 mph /  46.7 km/h 83 % 0.00 in /  0 mm
13:25 48.8 °F /  9.3 °C 43.9 °F /  6.6 °C 29.44 in /  996.8 hPa West 6.1 mph /  9.8 km/h 29.0 mph /  46.7 km/h 83 % 0.00 in /  0 mm
13:30 48.8 °F /  9.3 °C 43.9 °F /  6.6 °C 29.43 in /  996.5 hPa West 0.7 mph /  1.1 km/h 29.0 mph /  46.7 km/h 83 % 0.00 in /  0 mm
13:35 49.0 °F /  9.4 °C 44.4 °F /  6.9 °C 29.43 in /  996.5 hPa West 5.9 mph /  9.5 km/h 29.0 mph /  46.7 km/h 84 % 0.00 in /  0 mm
13:41 49.2 °F /  9.6 °C 44.6 °F /  7 °C 29.44 in /  996.8 hPa West 5.1 mph /  8.2 km/h 29.0 mph /  46.7 km/h 84 % 0.00 in /  0 mm
13:46 49.4 °F /  9.7 °C 44.8 °F /  7.1 °C 29.44 in /  996.8 hPa WSW 6.5 mph /  10.5 km/h 29.0 mph /  46.7 km/h 84 % 0.00 in /  0 mm
13:51 49.5 °F /  9.7 °C 44.6 °F /  7 °C 29.44 in /  996.8 hPa WNW 3.8 mph /  6.1 km/h 29.0 mph /  46.7 km/h 83 % 0.00 in /  0 mm
13:56 49.6 °F /  9.8 °C 44.3 °F /  6.8 °C 29.44 in /  996.8 hPa WSW 7.0 mph /  11.3 km/h 29.0 mph /  46.7 km/h 82 % 0.00 in /  0 mm
14:01 49.6 °F /  9.8 °C 44.3 °F /  6.8 °C 29.45 in /  997.2 hPa West 7.4 mph /  11.9 km/h 29.0 mph /  46.7 km/h 82 % 0.00 in /  0 mm
14:06 49.7 °F /  9.8 °C 44.1 °F /  6.7 °C 29.44 in /  996.8 hPa WSW 5.5 mph /  8.9 km/h 29.0 mph /  46.7 km/h 81 % 0.00 in /  0 mm
14:11 49.8 °F /  9.9 °C 44.2 °F /  6.8 °C 29.44 in /  996.8 hPa West 3.9 mph /  6.3 km/h 29.0 mph /  46.7 km/h 81 % 0.00 in /  0 mm
14:16 49.9 °F /  9.9 °C 44.3 °F /  6.8 °C 29.44 in /  996.8 hPa West 7.6 mph /  12.2 km/h 29.0 mph /  46.7 km/h 81 % 0.00 in /  0 mm
14:21 49.9 °F /  9.9 °C 44.3 °F /  6.8 °C 29.45 in /  997.2 hPa SW 3.9 mph /  6.3 km/h 29.0 mph /  46.7 km/h 81 % 0.00 in /  0 mm
14:26 49.8 °F /  9.9 °C 43.9 °F /  6.6 °C 29.44 in /  996.8 hPa WSW 6.4 mph /  10.3 km/h 29.0 mph /  46.7 km/h 80 % 0.00 in /  0 mm
14:31 49.7 °F /  9.8 °C 43.8 °F /  6.6 °C 29.44 in /  996.8 hPa SW 4.3 mph /  6.9 km/h 29.0 mph /  46.7 km/h 80 % 0.00 in /  0 mm
14:36 49.8 °F /  9.9 °C 43.9 °F /  6.6 °C 29.44 in /  996.8 hPa SW 4.8 mph /  7.7 km/h 29.0 mph /  46.7 km/h 80 % 0.00 in /  0 mm
14:41 49.7 °F /  9.8 °C 43.5 °F /  6.4 °C 29.45 in /  997.2 hPa West 4.8 mph /  7.7 km/h 29.0 mph /  46.7 km/h 79 % 0.00 in /  0 mm
14:46 49.8 °F /  9.9 °C 43.5 °F /  6.4 °C 29.44 in /  996.8 hPa West 7.5 mph /  12.1 km/h 29.0 mph /  46.7 km/h 79 % 0.00 in /  0 mm
14:51 49.8 °F /  9.9 °C 43.2 °F /  6.2 °C 29.45 in /  997.2 hPa NW 6.9 mph /  11.1 km/h 29.0 mph /  46.7 km/h 78 % 0.00 in /  0 mm
14:57 49.9 °F /  9.9 °C 43.0 °F /  6.1 °C 29.45 in /  997.2 hPa WSW 5.1 mph /  8.2 km/h 29.0 mph /  46.7 km/h 77 % 0.00 in /  0 mm
15:02 49.8 °F /  9.9 °C 42.2 °F /  5.7 °C 29.44 in /  996.8 hPa West 3.2 mph /  5.1 km/h 29.0 mph /  46.7 km/h 75 % 0.00 in /  0 mm
15:07 49.9 °F /  9.9 °C 42.3 °F /  5.7 °C 29.44 in /  996.8 hPa WSW 4.3 mph /  6.9 km/h 29.0 mph /  46.7 km/h 75 % 0.00 in /  0 mm
15:12 50.0 °F /  10 °C 42.4 °F /  5.8 °C 29.44 in /  996.8 hPa WSW 5.1 mph /  8.2 km/h 29.0 mph /  46.7 km/h 75 % 0.00 in /  0 mm
15:17 50.0 °F /  10 °C 42.0 °F /  5.6 °C 29.44 in /  996.8 hPa WSW 6.0 mph /  9.7 km/h 29.0 mph /  46.7 km/h 74 % 0.00 in /  0 mm
15:22 50.0 °F /  10 °C 42.0 °F /  5.6 °C 29.44 in /  996.8 hPa SW 6.0 mph /  9.7 km/h 29.0 mph /  46.7 km/h 74 % 0.00 in /  0 mm
15:27 49.9 °F /  9.9 °C 41.6 °F /  5.3 °C 29.45 in /  997.2 hPa WSW 6.9 mph /  11.1 km/h 29.0 mph /  46.7 km/h 73 % 0.00 in /  0 mm
15:32 49.9 °F /  9.9 °C 41.6 °F /  5.3 °C 29.45 in /  997.2 hPa WSW 7.6 mph /  12.2 km/h 29.0 mph /  46.7 km/h 73 % 0.00 in /  0 mm
15:37 50.0 °F /  10 °C 41.7 °F /  5.4 °C 29.45 in /  997.2 hPa WNW 6.4 mph /  10.3 km/h 29.0 mph /  46.7 km/h 73 % 0.00 in /  0 mm
15:42 50.0 °F /  10 °C 41.3 °F /  5.2 °C 29.46 in /  997.5 hPa WSW 2.7 mph /  4.3 km/h 29.0 mph /  46.7 km/h 72 % 0.00 in /  0 mm
15:47 50.1 °F /  10.1 °C 41.4 °F /  5.2 °C 29.46 in /  997.5 hPa WNW 4.2 mph /  6.8 km/h 29.0 mph /  46.7 km/h 72 % 0.00 in /  0 mm
15:52 50.2 °F /  10.1 °C 40.4 °F /  4.7 °C 29.46 in /  997.5 hPa NNE 8.5 mph /  13.7 km/h 29.0 mph /  46.7 km/h 69 % 0.00 in /  0 mm
15:57 50.1 °F /  10.1 °C 39.9 °F /  4.4 °C 29.46 in /  997.5 hPa WNW 3.5 mph /  5.6 km/h 29.0 mph /  46.7 km/h 68 % 0.00 in /  0 mm
16:03 50.1 °F /  10.1 °C 39.9 °F /  4.4 °C 29.46 in /  997.5 hPa West 4.1 mph /  6.6 km/h 29.0 mph /  46.7 km/h 68 % 0.00 in /  0 mm
16:08 49.9 °F /  9.9 °C 39.4 °F /  4.1 °C 29.47 in /  997.9 hPa West 7.2 mph /  11.6 km/h 29.0 mph /  46.7 km/h 67 % 0.00 in /  0 mm
16:13 49.5 °F /  9.7 °C 36.6 °F /  2.6 °C 29.47 in /  997.9 hPa WSW 4.3 mph /  6.9 km/h 29.0 mph /  46.7 km/h 61 % 0.00 in /  0 mm
16:18 49.1 °F /  9.5 °C 34.1 °F /  1.2 °C 29.47 in /  997.9 hPa West 7.4 mph /  11.9 km/h 29.0 mph /  46.7 km/h 56 % 0.00 in /  0 mm
16:23 48.8 °F /  9.3 °C 33.3 °F /  0.7 °C 29.47 in /  997.9 hPa West 7.4 mph /  11.9 km/h 29.0 mph /  46.7 km/h 55 % 0.00 in /  0 mm
16:28 48.5 °F /  9.2 °C 33.1 °F /  0.6 °C 29.48 in /  998.2 hPa West 8.4 mph /  13.5 km/h 29.0 mph /  46.7 km/h 55 % 0.00 in /  0 mm
16:33 48.1 °F /  8.9 °C 32.2 °F /  0.1 °C 29.47 in /  997.9 hPa WSW 7.5 mph /  12.1 km/h 29.0 mph /  46.7 km/h 54 % 0.00 in /  0 mm
16:38 47.9 °F /  8.8 °C 32.0 °F /  0 °C 29.47 in /  997.9 hPa WNW 8.9 mph /  14.3 km/h 29.0 mph /  46.7 km/h 54 % 0.00 in /  0 mm
16:43 47.7 °F /  8.7 °C 32.3 °F /  0.2 °C 29.48 in /  998.2 hPa SW 5.6 mph /  9 km/h 29.0 mph /  46.7 km/h 55 % 0.00 in /  0 mm
16:48 47.5 °F /  8.6 °C 32.1 °F /  0.1 °C 29.48 in /  998.2 hPa SW 8.0 mph /  12.9 km/h 29.0 mph /  46.7 km/h 55 % 0.00 in /  0 mm
16:53 47.3 °F /  8.5 °C 32.4 °F /  0.2 °C 29.48 in /  998.2 hPa WSW 8.7 mph /  14 km/h 29.0 mph /  46.7 km/h 56 % 0.00 in /  0 mm
16:58 47.1 °F /  8.4 °C 32.2 °F /  0.1 °C 29.48 in /  998.2 hPa West 5.0 mph /  8 km/h 29.0 mph /  46.7 km/h 56 % 0.00 in /  0 mm
17:04 46.9 °F /  8.3 °C 31.6 °F /  -0.2 °C 29.48 in /  998.2 hPa WSW 7.4 mph /  11.9 km/h 29.0 mph /  46.7 km/h 55 % 0.00 in /  0 mm
17:09 46.9 °F /  8.3 °C 32.0 °F /  0 °C 29.48 in /  998.2 hPa WNW 4.7 mph /  7.6 km/h 29.0 mph /  46.7 km/h 56 % 0.00 in /  0 mm
17:14 46.7 °F /  8.2 °C 31.8 °F /  -0.1 °C 29.48 in /  998.2 hPa WSW 7.8 mph /  12.6 km/h 29.0 mph /  46.7 km/h 56 % 0.00 in /  0 mm
17:19 46.6 °F /  8.1 °C 31.7 °F /  -0.2 °C 29.49 in /  998.5 hPa WSW 6.8 mph /  10.9 km/h 29.0 mph /  46.7 km/h 56 % 0.00 in /  0 mm
17:24 46.5 °F /  8.1 °C 32.1 °F /  0.1 °C 29.49 in /  998.5 hPa WSW 5.4 mph /  8.7 km/h 29.0 mph /  46.7 km/h 57 % 0.00 in /  0 mm
17:29 46.4 °F /  8 °C 32.0 °F /  0 °C 29.49 in /  998.5 hPa WSW 3.0 mph /  4.8 km/h 29.0 mph /  46.7 km/h 57 % 0.00 in /  0 mm
17:34 46.2 °F /  7.9 °C 31.4 °F /  -0.3 °C 29.49 in /  998.5 hPa WSW 4.7 mph /  7.6 km/h 29.0 mph /  46.7 km/h 56 % 0.00 in /  0 mm
17:39 46.1 °F /  7.8 °C 30.8 °F /  -0.7 °C 29.50 in /  998.9 hPa WSW 7.3 mph /  11.7 km/h 29.0 mph /  46.7 km/h 55 % 0.00 in /  0 mm
17:47 46.0 °F /  7.8 °C 30.3 °F /  -0.9 °C 29.50 in /  998.9 hPa WSW 9.0 mph /  14.5 km/h 29.0 mph /  46.7 km/h 54 % 0.00 in /  0 mm
17:54 45.9 °F /  7.7 °C 30.6 °F /  -0.8 °C 29.51 in /  999.2 hPa SSW 4.9 mph /  7.9 km/h 29.0 mph /  46.7 km/h 55 % 0.00 in /  0 mm
17:59 45.7 °F /  7.6 °C 30.9 °F /  -0.6 °C 29.51 in /  999.2 hPa West 4.6 mph /  7.4 km/h 29.0 mph /  46.7 km/h 56 % 0.00 in /  0 mm
18:04 45.5 °F /  7.5 °C 31.1 °F /  -0.5 °C 29.52 in /  999.5 hPa WSW 3.8 mph /  6.1 km/h 29.0 mph /  46.7 km/h 57 % 0.00 in /  0 mm
18:09 45.2 °F /  7.3 °C 30.9 °F /  -0.6 °C 29.52 in /  999.5 hPa WSW 4.3 mph /  6.9 km/h 29.0 mph /  46.7 km/h 57 % 0.00 in /  0 mm
18:14 45.0 °F /  7.2 °C 30.7 °F /  -0.7 °C 29.52 in /  999.5 hPa WSW 6.0 mph /  9.7 km/h 10.0 mph /  16.1 km/h 57 % 0.00 in /  0 mm
18:19 44.9 °F /  7.2 °C 31.0 °F /  -0.6 °C 29.52 in /  999.5 hPa WSW 3.0 mph /  4.8 km/h 14.0 mph /  22.5 km/h 58 % 0.00 in /  0 mm
18:24 44.7 °F /  7.1 °C 30.8 °F /  -0.7 °C 29.52 in /  999.5 hPa WNW 5.2 mph /  8.4 km/h 29.0 mph /  46.7 km/h 58 % 0.00 in /  0 mm
18:29 44.6 °F /  7 °C 30.7 °F /  -0.7 °C 29.52 in /  999.5 hPa WSW 6.0 mph /  9.7 km/h 15.0 mph /  24.1 km/h 58 % 0.00 in /  0 mm
18:34 44.5 °F /  6.9 °C 29.8 °F /  -1.2 °C 29.52 in /  999.5 hPa NW 4.5 mph /  7.2 km/h 29.0 mph /  46.7 km/h 56 % 0.00 in /  0 mm
18:39 44.4 °F /  6.9 °C 28.8 °F /  -1.8 °C 29.52 in /  999.5 hPa West 7.0 mph /  11.3 km/h 14.0 mph /  22.5 km/h 54 % 0.00 in /  0 mm
18:44 44.4 °F /  6.9 °C 26.9 °F /  -2.8 °C 29.53 in /  999.9 hPa WSW 15.0 mph /  24.1 km/h 24.0 mph /  38.6 km/h 50 % 0.00 in /  0 mm
18:49 44.6 °F /  7 °C 27.1 °F /  -2.7 °C 29.53 in /  999.9 hPa West 10.0 mph /  16.1 km/h 20.0 mph /  32.2 km/h 50 % 0.00 in /  0 mm
18:54 44.5 °F /  6.9 °C 27.0 °F /  -2.8 °C 29.53 in /  999.9 hPa West 5.0 mph /  8 km/h 22.0 mph /  35.4 km/h 50 % 0.00 in /  0 mm
18:59 44.4 °F /  6.9 °C 26.9 °F /  -2.8 °C 29.53 in /  999.9 hPa WNW 7.6 mph /  12.2 km/h 29.0 mph /  46.7 km/h 50 % 0.00 in /  0 mm
19:04 44.3 °F /  6.8 °C 26.3 °F /  -3.2 °C 29.54 in /  1000.2 hPa West 7.0 mph /  11.3 km/h 16.0 mph /  25.7 km/h 49 % 0.00 in /  0 mm
19:09 44.2 °F /  6.8 °C 26.2 °F /  -3.2 °C 29.54 in /  1000.2 hPa WSW 8.0 mph /  12.9 km/h 15.0 mph /  24.1 km/h 49 % 0.00 in /  0 mm
19:14 44.1 °F /  6.7 °C 26.1 °F /  -3.3 °C 29.54 in /  1000.2 hPa SW 6.0 mph /  9.7 km/h 26.0 mph /  41.8 km/h 49 % 0.00 in /  0 mm
19:19 44.0 °F /  6.7 °C 25.5 °F /  -3.6 °C 29.55 in /  1000.6 hPa WSW 6.0 mph /  9.7 km/h 14.0 mph /  22.5 km/h 48 % 0.00 in /  0 mm
19:24 43.8 °F /  6.6 °C 25.9 °F /  -3.4 °C 29.55 in /  1000.6 hPa West 6.0 mph /  9.7 km/h 15.0 mph /  24.1 km/h 49 % 0.00 in /  0 mm
19:29 43.7 °F /  6.5 °C 25.3 °F /  -3.7 °C 29.55 in /  1000.6 hPa West 7.0 mph /  11.3 km/h 12.0 mph /  19.3 km/h 48 % 0.00 in /  0 mm
19:34 43.6 °F /  6.4 °C 25.7 °F /  -3.5 °C 29.55 in /  1000.6 hPa West 6.3 mph /  10.1 km/h 29.0 mph /  46.7 km/h 49 % 0.00 in /  0 mm
19:39 43.4 °F /  6.3 °C 26.0 °F /  -3.3 °C 29.55 in /  1000.6 hPa WNW 6.0 mph /  9.7 km/h 12.0 mph /  19.3 km/h 50 % 0.00 in /  0 mm
19:44 43.3 °F /  6.3 °C 25.9 °F /  -3.4 °C 29.55 in /  1000.6 hPa West 8.0 mph /  12.9 km/h 16.0 mph /  25.7 km/h 50 % 0.00 in /  0 mm
19:49 43.1 °F /  6.2 °C 23.2 °F /  -4.9 °C 29.56 in /  1000.9 hPa WSW 9.2 mph /  14.8 km/h 29.0 mph /  46.7 km/h 45 % 0.00 in /  0 mm
19:54 42.9 °F /  6.1 °C 21.9 °F /  -5.6 °C 29.56 in /  1000.9 hPa WSW 10.0 mph /  16.1 km/h 20.0 mph /  32.2 km/h 43 % 0.00 in /  0 mm
19:59 42.7 °F /  5.9 °C 21.7 °F /  -5.7 °C 29.56 in /  1000.9 hPa West 6.9 mph /  11.1 km/h 29.0 mph /  46.7 km/h 43 % 0.00 in /  0 mm
20:04 42.6 °F /  5.9 °C 22.2 °F /  -5.4 °C 29.57 in /  1001.2 hPa WSW 5.9 mph /  9.5 km/h 29.0 mph /  46.7 km/h 44 % 0.00 in /  0 mm
20:09 42.4 °F /  5.8 °C 21.5 °F /  -5.8 °C 29.57 in /  1001.2 hPa WNW 5.3 mph /  8.5 km/h 29.0 mph /  46.7 km/h 43 % 0.00 in /  0 mm
20:14 42.2 °F /  5.7 °C 21.8 °F /  -5.7 °C 29.57 in /  1001.2 hPa SW 7.9 mph /  12.7 km/h 29.0 mph /  46.7 km/h 44 % 0.00 in /  0 mm
20:19 42.0 °F /  5.6 °C 21.1 °F /  -6.1 °C 29.57 in /  1001.2 hPa West 12.4 mph /  20 km/h 29.0 mph /  46.7 km/h 43 % 0.00 in /  0 mm
20:25 41.8 °F /  5.4 °C 20.4 °F /  -6.4 °C 29.57 in /  1001.2 hPa SW 13.1 mph /  21.1 km/h 29.0 mph /  46.7 km/h 42 % 0.00 in /  0 mm
20:30 41.6 °F /  5.3 °C 20.2 °F /  -6.6 °C 29.57 in /  1001.2 hPa WSW 12.3 mph /  19.8 km/h 29.0 mph /  46.7 km/h 42 % 0.00 in /  0 mm
20:35 41.5 °F /  5.3 °C 20.6 °F /  -6.3 °C 29.58 in /  1001.6 hPa WSW 7.5 mph /  12.1 km/h 29.0 mph /  46.7 km/h 43 % 0.00 in /  0 mm
20:40 41.3 °F /  5.2 °C 21.0 °F /  -6.1 °C 29.58 in /  1001.6 hPa WSW 7.8 mph /  12.6 km/h 29.0 mph /  46.7 km/h 44 % 0.00 in /  0 mm
20:45 41.1 °F /  5.1 °C 21.3 °F /  -5.9 °C 29.58 in /  1001.6 hPa SW 6.3 mph /  10.1 km/h 29.0 mph /  46.7 km/h 45 % 0.00 in /  0 mm
20:50 40.9 °F /  4.9 °C 20.1 °F /  -6.6 °C 29.58 in /  1001.6 hPa NW 8.6 mph /  13.8 km/h 29.0 mph /  46.7 km/h 43 % 0.00 in /  0 mm
20:55 40.8 °F /  4.9 °C 19.5 °F /  -6.9 °C 29.59 in /  1001.9 hPa WNW 13.1 mph /  21.1 km/h 29.0 mph /  46.7 km/h 42 % 0.00 in /  0 mm
21:00 40.6 °F /  4.8 °C 19.3 °F /  -7.1 °C 29.59 in /  1001.9 hPa WNW 11.0 mph /  17.7 km/h 29.0 mph /  46.7 km/h 42 % 0.00 in /  0 mm
21:05 40.4 °F /  4.7 °C 19.6 °F /  -6.9 °C 29.59 in /  1001.9 hPa SW 7.7 mph /  12.4 km/h 29.0 mph /  46.7 km/h 43 % 0.00 in /  0 mm
21:10 40.2 °F /  4.6 °C 20.0 °F /  -6.7 °C 29.60 in /  1002.3 hPa SW 11.5 mph /  18.5 km/h 29.0 mph /  46.7 km/h 44 % 0.00 in /  0 mm
21:15 40.0 °F /  4.4 °C 20.3 °F /  -6.5 °C 29.60 in /  1002.3 hPa SW 9.3 mph /  15 km/h 29.0 mph /  46.7 km/h 45 % 0.00 in /  0 mm
21:20 39.7 °F /  4.3 °C 20.6 °F /  -6.3 °C 29.60 in /  1002.3 hPa WSW 11.0 mph /  17.7 km/h 29.0 mph /  46.7 km/h 46 % 0.00 in /  0 mm
21:25 39.5 °F /  4.2 °C 20.9 °F /  -6.2 °C 29.60 in /  1002.3 hPa SW 7.4 mph /  11.9 km/h 29.0 mph /  46.7 km/h 47 % 0.00 in /  0 mm
21:31 39.3 °F /  4.1 °C 19.7 °F /  -6.8 °C 29.60 in /  1002.3 hPa WSW 12.1 mph /  19.5 km/h 29.0 mph /  46.7 km/h 45 % 0.00 in /  0 mm
21:36 39.2 °F /  4 °C 19.1 °F /  -7.2 °C 29.61 in /  1002.6 hPa WSW 8.8 mph /  14.2 km/h 29.0 mph /  46.7 km/h 44 % 0.00 in /  0 mm
21:41 39.0 °F /  3.9 °C 19.9 °F /  -6.7 °C 29.62 in /  1002.9 hPa SSW 10.4 mph /  16.7 km/h 29.0 mph /  46.7 km/h 46 % 0.00 in /  0 mm
21:46 38.8 °F /  3.8 °C 18.7 °F /  -7.4 °C 29.62 in /  1002.9 hPa WSW 9.3 mph /  15 km/h 29.0 mph /  46.7 km/h 44 % 0.00 in /  0 mm
21:51 38.5 °F /  3.6 °C 19.5 °F /  -6.9 °C 29.62 in /  1002.9 hPa SW 14.1 mph /  22.7 km/h 29.0 mph /  46.7 km/h 46 % 0.00 in /  0 mm
21:56 38.3 °F /  3.5 °C 19.3 °F /  -7.1 °C 29.63 in /  1003.3 hPa WSW 12.2 mph /  19.6 km/h 29.0 mph /  46.7 km/h 46 % 0.00 in /  0 mm
22:01 38.2 °F /  3.4 °C 19.7 °F /  -6.8 °C 29.63 in /  1003.3 hPa WSW 12.8 mph /  20.6 km/h 29.0 mph /  46.7 km/h 47 % 0.00 in /  0 mm
22:06 38.0 °F /  3.3 °C 19.5 °F /  -6.9 °C 29.63 in /  1003.3 hPa WSW 5.7 mph /  9.2 km/h 29.0 mph /  46.7 km/h 47 % 0.00 in /  0 mm
22:11 37.8 °F /  3.2 °C 19.3 °F /  -7.1 °C 29.63 in /  1003.3 hPa WSW 9.4 mph /  15.1 km/h 29.0 mph /  46.7 km/h 47 % 0.00 in /  0 mm
22:16 37.7 °F /  3.2 °C 19.3 °F /  -7.1 °C 29.64 in /  1003.6 hPa WSW 8.8 mph /  14.2 km/h 29.0 mph /  46.7 km/h 47 % 0.00 in /  0 mm
22:21 37.5 °F /  3.1 °C 18.6 °F /  -7.4 °C 29.64 in /  1003.6 hPa West 9.1 mph /  14.6 km/h 29.0 mph /  46.7 km/h 46 % 0.00 in /  0 mm
22:26 37.4 °F /  3 °C 18.5 °F /  -7.5 °C 29.65 in /  1003.9 hPa WNW 7.7 mph /  12.4 km/h 29.0 mph /  46.7 km/h 46 % 0.00 in /  0 mm
22:31 37.2 °F /  2.9 °C 18.3 °F /  -7.6 °C 29.65 in /  1003.9 hPa West 7.9 mph /  12.7 km/h 29.0 mph /  46.7 km/h 46 % 0.00 in /  0 mm
22:36 37.1 °F /  2.8 °C 18.2 °F /  -7.7 °C 29.65 in /  1003.9 hPa West 5.8 mph /  9.3 km/h 29.0 mph /  46.7 km/h 46 % 0.00 in /  0 mm
22:41 37.0 °F /  2.8 °C 18.1 °F /  -7.7 °C 29.66 in /  1004.3 hPa NW 10.4 mph /  16.7 km/h 29.0 mph /  46.7 km/h 46 % 0.00 in /  0 mm
22:46 36.9 °F /  2.7 °C 17.5 °F /  -8.1 °C 29.66 in /  1004.3 hPa NW 12.1 mph /  19.5 km/h 29.0 mph /  46.7 km/h 45 % 0.00 in /  0 mm
22:51 36.8 °F /  2.7 °C 17.4 °F /  -8.1 °C 29.66 in /  1004.3 hPa WSW 12.3 mph /  19.8 km/h 29.0 mph /  46.7 km/h 45 % 0.00 in /  0 mm
22:57 36.7 °F /  2.6 °C 17.3 °F /  -8.2 °C 29.66 in /  1004.3 hPa SW 7.8 mph /  12.6 km/h 29.0 mph /  46.7 km/h 45 % 0.00 in /  0 mm
23:02 36.6 °F /  2.6 °C 17.7 °F /  -7.9 °C 29.66 in /  1004.3 hPa WSW 7.9 mph /  12.7 km/h 29.0 mph /  46.7 km/h 46 % 0.00 in /  0 mm
23:06 36.5 °F /  2.5 °C 17.7 °F /  -7.9 °C 29.66 in /  1004.3 hPa West 9.5 mph /  15.3 km/h 29.0 mph /  46.7 km/h 46 % 0.00 in /  0 mm
23:12 36.4 °F /  2.4 °C 18.1 °F /  -7.7 °C 29.67 in /  1004.6 hPa WNW 8.5 mph /  13.7 km/h 29.0 mph /  46.7 km/h 47 % 0.00 in /  0 mm
23:17 36.2 °F /  2.3 °C 18.4 °F /  -7.6 °C 29.67 in /  1004.6 hPa West 6.6 mph /  10.6 km/h 29.0 mph /  46.7 km/h 48 % 0.00 in /  0 mm
23:22 36.1 °F /  2.3 °C 18.3 °F /  -7.6 °C 29.67 in /  1004.6 hPa WSW 7.2 mph /  11.6 km/h 29.0 mph /  46.7 km/h 48 % 0.00 in /  0 mm
23:27 36.1 °F /  2.3 °C 18.8 °F /  -7.3 °C 29.67 in /  1004.6 hPa WSW 7.1 mph /  11.4 km/h 29.0 mph /  46.7 km/h 49 % 0.00 in /  0 mm
23:32 36.0 °F /  2.2 °C 18.2 °F /  -7.7 °C 29.68 in /  1005 hPa WNW 7.6 mph /  12.2 km/h 29.0 mph /  46.7 km/h 48 % 0.00 in /  0 mm
23:37 35.9 °F /  2.2 °C 18.1 °F /  -7.7 °C 29.67 in /  1004.6 hPa West 13.2 mph /  21.2 km/h 29.0 mph /  46.7 km/h 48 % 0.00 in /  0 mm
23:42 35.8 °F /  2.1 °C 18.5 °F /  -7.5 °C 29.67 in /  1004.6 hPa WNW 10.2 mph /  16.4 km/h 29.0 mph /  46.7 km/h 49 % 0.00 in /  0 mm
23:47 35.7 °F /  2.1 °C 18.4 °F /  -7.6 °C 29.67 in /  1004.6 hPa WSW 3.9 mph /  6.3 km/h 29.0 mph /  46.7 km/h 49 % 0.00 in /  0 mm
23:52 35.6 °F /  2 °C 18.8 °F /  -7.3 °C 29.68 in /  1005 hPa West 9.2 mph /  14.8 km/h 29.0 mph /  46.7 km/h 50 % 0.00 in /  0 mm
23:57 35.5 °F /  1.9 °C 18.7 °F /  -7.4 °C 29.67 in /  1004.6 hPa WSW 6.4 mph /  10.3 km/h 29.0 mph /  46.7 km/h 50 % 0.00 in /  0 mm
Crab Meadow Weather
Compliments of Weather Underground - 3 mb

Script developed by  Jim McMurry - jmcmurry@mwt.net Adapted for the template by  Wim van der Kuil - Leuven-Template.eu

Recycling: Every ton of mixed paper recycled can save the energy equivalent of 185 gallons of gas.